createdAt,value
2023-02-24T00:01:51.674Z,4.20
2023-02-24T00:04:21.520Z,3.88
2023-02-24T00:06:50.660Z,3.85
2023-02-24T00:09:20.616Z,5.03
2023-02-24T00:11:53.894Z,4.00
2023-02-24T00:14:22.157Z,4.38
2023-02-24T00:16:50.000Z,3.85
2023-02-24T00:19:19.988Z,3.90
2023-02-24T00:21:48.172Z,4.00
2023-02-24T00:24:17.243Z,4.18
2023-02-24T00:26:45.661Z,4.53
2023-02-24T00:29:14.497Z,4.15
2023-02-24T00:31:43.089Z,5.65
2023-02-24T00:34:15.071Z,4.75
2023-02-24T00:36:42.943Z,4.35
2023-02-24T00:39:11.131Z,4.55
2023-02-24T00:41:42.291Z,4.63
2023-02-24T00:44:12.002Z,5.97
2023-02-24T00:46:41.638Z,5.85
2023-02-24T00:49:13.206Z,4.82
2023-02-24T00:51:43.190Z,4.85
2023-02-24T00:54:14.861Z,4.25
2023-02-24T00:56:45.286Z,5.53
2023-02-24T00:59:14.567Z,4.13
2023-02-24T01:01:44.297Z,3.60
2023-02-24T01:04:13.272Z,5.15
2023-02-24T01:06:43.525Z,4.45
2023-02-24T01:09:13.684Z,4.93
2023-02-24T01:11:59.310Z,4.30
2023-02-24T01:14:31.051Z,4.63
2023-02-24T01:16:59.197Z,4.32
2023-02-24T01:19:31.501Z,4.63
2023-02-24T01:22:01.081Z,4.93
2023-02-24T01:24:30.267Z,4.35
2023-02-24T01:26:58.218Z,4.85
2023-02-24T01:29:26.260Z,5.07
2023-02-24T01:31:58.120Z,4.25
2023-02-24T01:34:26.909Z,3.78
2023-02-24T01:36:55.354Z,3.72
2023-02-24T01:39:23.200Z,3.30
2023-02-24T01:41:53.019Z,4.15
2023-02-24T01:44:59.286Z,3.60
2023-02-24T01:47:31.229Z,4.57
2023-02-24T01:49:59.176Z,3.63
2023-02-24T01:52:31.442Z,4.43
2023-02-24T01:55:05.103Z,3.60
2023-02-24T01:57:36.790Z,4.47
2023-02-24T02:00:30.660Z,3.85
2023-02-24T02:03:01.861Z,3.63
2023-02-24T02:05:29.727Z,4.57
2023-02-24T02:07:58.349Z,3.70
2023-02-24T02:10:28.589Z,4.05
2023-02-24T02:12:56.945Z,5.13
2023-02-24T02:15:24.926Z,3.65
2023-02-24T02:18:03.183Z,3.53
2023-02-24T02:21:07.076Z,3.13
2023-02-24T02:23:57.943Z,3.40
2023-02-24T02:26:57.825Z,2.90
2023-02-24T02:29:45.286Z,2.80
2023-02-24T02:35:09.841Z,3.50
2023-02-24T02:37:49.730Z,3.03
2023-02-24T02:40:26.695Z,3.35
2023-02-24T02:45:32.950Z,2.92
2023-02-24T02:48:04.217Z,4.43
2023-02-24T02:50:43.293Z,3.20
2023-02-24T02:53:15.512Z,2.65
2023-02-24T02:55:49.648Z,3.28
2023-02-24T02:58:23.580Z,3.63
2023-02-24T03:01:02.531Z,3.70
2023-02-24T03:03:33.442Z,3.13
2023-02-24T03:06:06.376Z,3.10
2023-02-24T03:08:38.918Z,3.40
2023-02-24T03:11:12.529Z,4.20
2023-02-24T03:13:44.212Z,3.30
2023-02-24T03:16:14.635Z,3.40
2023-02-24T03:18:50.944Z,2.70
2023-02-24T03:21:29.648Z,3.70
2023-02-24T03:23:57.613Z,3.28
2023-02-24T03:26:28.368Z,3.10
2023-02-24T03:29:01.719Z,2.70
2023-02-24T03:31:34.527Z,3.45
2023-02-24T03:34:10.251Z,3.35
2023-02-24T03:36:39.857Z,3.10
2023-02-24T03:39:11.407Z,2.78
2023-02-24T03:41:45.156Z,2.88
2023-02-24T03:44:14.773Z,3.05
2023-02-24T03:46:43.065Z,2.63
2023-02-24T03:49:14.305Z,3.25
2023-02-24T03:51:45.103Z,3.17
2023-02-24T03:54:30.532Z,3.58
2023-02-24T03:57:14.161Z,3.83
2023-02-24T03:59:52.841Z,2.67
2023-02-24T04:02:23.507Z,2.80
2023-02-24T04:04:56.194Z,2.60
2023-02-24T04:07:37.748Z,2.75
2023-02-24T04:10:12.719Z,2.97
2023-02-24T04:12:46.999Z,3.25
2023-02-24T04:15:21.749Z,2.83
2023-02-24T04:17:53.202Z,4.30
2023-02-24T04:20:23.687Z,2.67
2023-02-24T04:22:59.475Z,2.45
2023-02-24T04:25:28.969Z,2.20
2023-02-24T04:28:01.880Z,2.80
2023-02-24T04:30:36.143Z,4.20
2023-02-24T04:33:04.171Z,3.13
2023-02-24T04:35:33.046Z,3.25
2023-02-24T04:38:02.251Z,2.67
2023-02-24T04:40:30.037Z,2.60
2023-02-24T04:42:57.936Z,3.88
2023-02-24T04:45:27.804Z,2.72
2023-02-24T04:48:00.883Z,2.95
2023-02-24T04:50:32.835Z,2.60
2023-02-24T04:53:06.668Z,3.17
2023-02-24T04:55:40.000Z,2.38
2023-02-24T04:58:08.584Z,2.35
2023-02-24T05:00:36.276Z,2.70
2023-02-24T05:03:05.924Z,2.25
2023-02-24T05:05:34.275Z,3.08
2023-02-24T05:08:06.413Z,2.70
2023-02-24T05:10:38.843Z,2.70
2023-02-24T05:13:09.031Z,2.55
2023-02-24T05:15:41.704Z,2.88
2023-02-24T05:18:14.107Z,3.17
2023-02-24T05:21:02.159Z,2.30
2023-02-24T05:23:34.411Z,2.65
2023-02-24T05:26:03.308Z,2.80
2023-02-24T05:28:31.915Z,3.08
2023-02-24T05:31:08.437Z,3.00
2023-02-24T05:33:37.710Z,2.85
2023-02-24T05:36:08.210Z,2.60
2023-02-24T05:38:38.243Z,2.67
2023-02-24T05:41:08.265Z,2.35
2023-02-24T05:43:39.251Z,1.88
2023-02-24T05:46:07.268Z,2.60
2023-02-24T05:48:35.342Z,2.22
2023-02-24T05:51:05.247Z,2.58
2023-02-24T05:53:33.560Z,2.85
2023-02-24T05:56:05.565Z,2.70
2023-02-24T05:58:33.340Z,2.88
2023-02-24T06:01:05.970Z,2.92
2023-02-24T06:03:35.580Z,3.20
2023-02-24T06:06:08.936Z,2.60
2023-02-24T06:08:42.296Z,2.80
2023-02-24T06:11:12.962Z,3.15
2023-02-24T06:13:40.698Z,3.03
2023-02-24T06:16:12.811Z,3.10
2023-02-24T06:18:40.837Z,2.60
2023-02-24T06:21:09.259Z,3.03
2023-02-24T06:23:36.951Z,2.80
2023-02-24T06:26:05.581Z,3.03
2023-02-24T06:28:34.643Z,2.33
2023-02-24T06:31:06.811Z,4.50
2023-02-24T06:33:35.970Z,3.75
2023-02-24T06:36:05.096Z,3.97
2023-02-24T06:38:33.250Z,3.17
2023-02-24T06:41:04.095Z,2.63
2023-02-24T06:43:31.852Z,3.15
2023-02-24T06:46:02.981Z,3.03
2023-02-24T06:48:30.718Z,2.50
2023-02-24T06:50:58.429Z,3.17
2023-02-24T06:53:26.764Z,2.40
2023-02-24T06:55:55.090Z,2.38
2023-02-24T06:58:24.306Z,2.38
2023-02-24T07:00:57.756Z,2.38
2023-02-24T07:03:39.568Z,2.70
2023-02-24T07:06:22.059Z,2.50
2023-02-24T07:08:49.921Z,2.22
2023-02-24T07:11:19.313Z,2.90
2023-02-24T07:13:48.589Z,2.85
2023-02-24T07:16:17.963Z,2.45
2023-02-24T07:18:48.697Z,2.78
2023-02-24T07:21:20.625Z,2.30
2023-02-24T07:23:49.694Z,2.42
2023-02-24T07:26:19.850Z,2.53
2023-02-24T07:28:49.934Z,2.40
2023-02-24T07:31:21.142Z,2.75
2023-02-24T07:33:55.612Z,2.60
2023-02-24T07:36:24.106Z,2.53
2023-02-24T07:38:54.294Z,2.42
2023-02-24T07:41:23.924Z,1.85
2023-02-24T07:43:51.983Z,2.58
2023-02-24T07:46:24.523Z,2.75
2023-02-24T07:48:54.887Z,2.63
2023-02-24T07:51:25.511Z,3.28
2023-02-24T07:53:56.743Z,2.90
2023-02-24T07:56:27.091Z,2.83
2023-02-24T07:58:59.291Z,2.90
2023-02-24T08:01:28.515Z,2.35
2023-02-24T08:04:01.410Z,2.42
2023-02-24T08:06:37.861Z,3.22
2023-02-24T08:09:18.034Z,3.45
2023-02-24T08:11:49.189Z,2.10
2023-02-24T08:14:16.998Z,3.03
2023-02-24T08:16:46.226Z,2.40
2023-02-24T08:19:20.906Z,2.40
2023-02-24T08:21:52.647Z,2.70
2023-02-24T08:24:25.370Z,2.90
2023-02-24T08:27:04.332Z,2.65
2023-02-24T08:29:40.106Z,3.42
2023-02-24T08:32:09.438Z,2.67
2023-02-24T08:34:39.462Z,2.85
2023-02-24T08:37:07.199Z,2.75
2023-02-24T08:39:36.498Z,2.70
2023-02-24T08:42:04.926Z,2.42
2023-02-24T08:44:34.988Z,3.47
2023-02-24T08:47:05.310Z,2.65
2023-02-24T08:49:33.329Z,3.05
2023-02-24T08:52:02.580Z,2.58
2023-02-24T08:54:32.144Z,2.38
2023-02-24T08:57:08.249Z,2.40
2023-02-24T08:59:43.574Z,3.17
2023-02-24T09:02:24.356Z,2.80
2023-02-24T09:04:54.644Z,2.35
2023-02-24T09:07:26.144Z,2.60
2023-02-24T09:09:56.354Z,2.70
2023-02-24T09:12:25.863Z,2.28
2023-02-24T09:14:56.492Z,2.20
2023-02-24T09:17:49.801Z,3.58
2023-02-24T09:20:51.547Z,2.47
2023-02-24T09:23:29.914Z,2.72
2023-02-24T09:25:57.790Z,3.42
2023-02-24T09:28:26.706Z,2.50
2023-02-24T09:30:56.108Z,4.25
2023-02-24T09:33:29.322Z,2.47
2023-02-24T09:36:09.716Z,2.35
2023-02-24T09:38:57.715Z,2.25
2023-02-24T09:41:33.054Z,3.78
2023-02-24T09:44:07.399Z,2.63
2023-02-24T09:46:53.877Z,2.80
2023-02-24T09:49:25.185Z,2.93
2023-02-24T09:52:00.569Z,3.10
2023-02-24T09:54:35.370Z,4.13
2023-02-24T09:57:16.764Z,2.42
2023-02-24T10:00:21.975Z,2.65
2023-02-24T10:03:00.230Z,3.10
2023-02-24T10:05:38.309Z,2.60
2023-02-24T10:08:14.560Z,4.28
2023-02-24T10:11:00.732Z,3.72
2023-02-24T10:13:33.294Z,3.53
2023-02-24T10:16:07.035Z,2.88
2023-02-24T10:18:42.665Z,2.85
2023-02-24T10:21:30.491Z,2.83
2023-02-24T10:24:09.160Z,2.53
2023-02-24T10:27:00.337Z,2.88
2023-02-24T10:29:43.369Z,3.20
2023-02-24T10:32:23.821Z,2.47
2023-02-24T10:34:52.075Z,2.80
2023-02-24T10:37:28.141Z,3.10
2023-02-24T10:39:58.491Z,3.53
2023-02-24T10:42:31.833Z,2.75
2023-02-24T10:45:17.274Z,3.05
2023-02-24T10:47:56.279Z,2.50
2023-02-24T10:50:27.698Z,3.28
2023-02-24T10:53:34.410Z,2.50
2023-02-24T10:56:27.591Z,2.53
2023-02-24T10:59:18.756Z,3.15
2023-02-24T11:01:55.122Z,3.70
2023-02-24T11:04:43.826Z,2.97
2023-02-24T11:07:24.522Z,2.80
2023-02-24T11:10:11.261Z,2.67
2023-02-24T11:13:10.594Z,3.28
2023-02-24T11:16:03.092Z,2.70
2023-02-24T11:18:32.362Z,2.90
2023-02-24T11:21:03.281Z,2.70
2023-02-24T11:23:36.033Z,3.20
2023-02-24T11:26:07.741Z,3.85
2023-02-24T11:28:50.760Z,2.50
2023-02-24T11:31:36.242Z,3.92
2023-02-24T11:34:11.027Z,2.80
2023-02-24T11:36:54.441Z,2.78
2023-02-24T11:39:41.264Z,2.90
2023-02-24T11:42:14.849Z,3.35
2023-02-24T11:44:52.200Z,3.28
2023-02-24T11:47:26.796Z,2.42
2023-02-24T11:50:05.015Z,3.42
2023-02-24T11:52:39.102Z,2.58
2023-02-24T11:55:20.993Z,2.75
2023-02-24T11:57:53.700Z,2.88
2023-02-24T12:00:24.759Z,2.90
2023-02-24T12:03:02.292Z,3.10
2023-02-24T12:05:36.953Z,3.55
2023-02-24T12:08:10.790Z,3.15
2023-02-24T12:10:47.330Z,3.88
2023-02-24T12:13:25.233Z,3.28
2023-02-24T12:15:59.941Z,3.95
2023-02-24T12:18:34.984Z,3.95
2023-02-24T12:21:06.782Z,3.70
2023-02-24T12:23:37.530Z,3.45
2023-02-24T12:26:17.893Z,3.30
2023-02-24T12:29:01.398Z,4.75
2023-02-24T12:31:38.103Z,3.42
2023-02-24T12:34:14.453Z,3.42
2023-02-24T12:37:16.673Z,3.22
2023-02-24T12:39:54.083Z,4.15
2023-02-24T12:42:31.658Z,3.85
2023-02-24T12:45:05.016Z,4.25
2023-02-24T12:47:43.875Z,4.15
2023-02-24T12:50:24.310Z,3.97
2023-02-24T12:53:02.061Z,3.35
2023-02-24T12:55:41.062Z,3.72
2023-02-24T12:58:13.355Z,3.55
2023-02-24T13:00:54.367Z,3.63
2023-02-24T13:03:58.865Z,3.47
2023-02-24T13:06:39.253Z,4.00
2023-02-24T13:09:13.107Z,4.18
2023-02-24T13:11:47.170Z,3.60
2023-02-24T13:14:22.288Z,3.85
2023-02-24T13:16:50.127Z,3.45
2023-02-24T13:19:29.330Z,4.22
2023-02-24T13:22:09.745Z,3.97
2023-02-24T13:24:38.808Z,3.03
2023-02-24T13:27:09.216Z,3.65
2023-02-24T13:29:47.695Z,3.58
2023-02-24T13:32:33.105Z,2.83
2023-02-24T13:35:03.602Z,3.83
2023-02-24T13:37:36.416Z,3.95
2023-02-24T13:40:26.647Z,3.10
2023-02-24T13:43:00.716Z,3.28
2023-02-24T13:45:30.160Z,3.97
2023-02-24T13:48:28.560Z,3.30
2023-02-24T13:51:10.960Z,4.28
2023-02-24T13:54:02.506Z,3.45
2023-02-24T13:56:43.057Z,3.10
2023-02-24T13:59:43.551Z,3.70
2023-02-24T14:02:16.521Z,3.92
2023-02-24T14:04:50.188Z,3.42
2023-02-24T14:07:22.737Z,3.88
2023-02-24T14:09:56.240Z,3.47
2023-02-24T14:12:27.686Z,3.20
2023-02-24T14:14:55.957Z,3.22
2023-02-24T14:17:28.404Z,3.45
2023-02-24T14:19:57.748Z,3.00
2023-02-24T14:22:25.467Z,2.95
2023-02-24T14:25:03.475Z,3.55
2023-02-24T14:27:31.585Z,4.82
2023-02-24T14:30:00.371Z,3.22
2023-02-24T14:32:29.350Z,2.92
2023-02-24T14:34:57.350Z,2.92
2023-02-24T14:37:27.571Z,2.70
2023-02-24T14:39:56.751Z,3.22
2023-02-24T14:42:26.633Z,2.92
2023-02-24T14:44:55.977Z,3.65
2023-02-24T14:47:26.062Z,2.80
2023-02-24T14:49:56.702Z,3.00
2023-02-24T14:52:33.076Z,2.80
2023-02-24T14:55:06.092Z,3.30
2023-02-24T14:57:41.360Z,3.15
2023-02-24T15:00:17.432Z,3.10
2023-02-24T15:02:50.478Z,3.67
2023-02-24T15:05:18.387Z,2.90
2023-02-24T15:07:46.751Z,2.80
2023-02-24T15:10:23.446Z,3.17
2023-02-24T15:12:55.332Z,2.65
2023-02-24T15:15:27.087Z,3.00
2023-02-24T15:17:57.865Z,2.75
2023-02-24T15:20:31.246Z,3.38
2023-02-24T15:22:59.604Z,3.70
2023-02-24T15:25:41.809Z,3.50
2023-02-24T15:28:25.743Z,3.97
2023-02-24T15:31:01.390Z,3.40
2023-02-24T15:33:35.250Z,3.42
2023-02-24T15:36:09.396Z,2.90
2023-02-24T15:38:39.534Z,4.10
2023-02-24T15:41:08.796Z,3.00
2023-02-24T15:43:39.631Z,3.45
2023-02-24T15:46:21.957Z,4.68
2023-02-24T15:48:51.760Z,3.95
2023-02-24T15:51:28.893Z,3.60
2023-02-24T15:53:56.704Z,3.55
2023-02-24T15:56:24.660Z,3.10
2023-02-24T15:58:53.935Z,3.70
2023-02-24T16:01:21.798Z,3.63
2023-02-24T16:03:49.740Z,2.80
2023-02-24T16:06:21.243Z,3.20
2023-02-24T16:08:52.057Z,2.95
2023-02-24T16:11:24.247Z,3.38
2023-02-24T16:13:55.359Z,3.17
2023-02-24T16:16:24.991Z,2.47
2023-02-24T16:18:52.875Z,2.83
2023-02-24T16:21:20.718Z,3.47
2023-02-24T16:23:48.717Z,3.28
2023-02-24T16:26:18.395Z,3.15
2023-02-24T16:28:52.723Z,2.28
2023-02-24T16:31:22.201Z,2.50
2023-02-24T16:33:54.825Z,2.33
2023-02-24T16:36:24.789Z,2.92
2023-02-24T16:38:52.869Z,2.67
2023-02-24T16:41:20.722Z,2.63
2023-02-24T16:43:48.496Z,3.30
2023-02-24T16:46:19.341Z,2.65
2023-02-24T16:48:51.070Z,2.40
2023-02-24T16:51:18.861Z,2.85
2023-02-24T16:53:46.783Z,2.28
2023-02-24T16:56:15.316Z,2.85
2023-02-24T16:58:43.057Z,2.67
2023-02-24T17:01:18.256Z,1.70
2023-02-24T17:03:49.704Z,2.58
2023-02-24T17:06:18.058Z,2.13
2023-02-24T17:08:47.165Z,3.03
2023-02-24T17:11:16.776Z,2.38
2023-02-24T17:13:44.669Z,2.08
2023-02-24T17:16:12.951Z,3.05
2023-02-24T17:18:40.736Z,1.80
2023-02-24T17:21:13.389Z,2.05
2023-02-24T17:23:42.523Z,3.38
2023-02-24T17:26:14.444Z,1.75
2023-02-24T17:28:42.237Z,3.47
2023-02-24T17:31:10.083Z,2.22
2023-02-24T17:33:37.860Z,1.98
2023-02-24T17:36:05.800Z,2.40
2023-02-24T17:38:34.899Z,1.80
2023-02-24T17:41:02.629Z,1.90
2023-02-24T17:43:30.396Z,2.22
2023-02-24T17:45:58.238Z,2.35
2023-02-24T17:48:26.007Z,2.13
2023-02-24T17:50:53.863Z,3.08
2023-02-24T17:53:21.606Z,2.20
2023-02-24T17:56:02.350Z,1.95
2023-02-24T17:58:31.022Z,1.90
2023-02-24T18:00:58.813Z,2.38
2023-02-24T18:03:26.599Z,2.03
2023-02-24T18:05:59.501Z,2.47
2023-02-24T18:08:27.333Z,2.40
2023-02-24T18:10:56.404Z,2.65
2023-02-24T18:13:24.168Z,1.58
2023-02-24T18:15:52.049Z,1.67
2023-02-24T18:18:19.933Z,1.88
2023-02-24T18:20:47.614Z,2.53
2023-02-24T18:23:15.865Z,2.35
2023-02-24T18:25:43.605Z,1.85
2023-02-24T18:28:12.696Z,1.75
2023-02-24T18:30:41.072Z,1.92
2023-02-24T18:33:09.002Z,1.60
2023-02-24T18:35:38.721Z,1.80
2023-02-24T18:38:07.019Z,1.75
2023-02-24T18:40:34.783Z,1.80
2023-02-24T18:43:02.774Z,1.73
2023-02-24T18:45:32.471Z,1.70
2023-02-24T18:48:04.804Z,2.08
2023-02-24T18:50:33.758Z,2.85
2023-02-24T18:53:01.517Z,2.10
2023-02-24T18:55:29.886Z,2.50
2023-02-24T18:57:57.624Z,2.05
2023-02-24T19:00:25.412Z,2.50
2023-02-24T19:02:54.467Z,2.58
2023-02-24T19:05:22.310Z,2.10
2023-02-24T19:07:50.031Z,2.13
2023-02-24T19:10:18.554Z,1.98
2023-02-24T19:12:47.108Z,2.20
2023-02-24T19:15:15.031Z,2.45
2023-02-24T19:17:42.807Z,2.33
2023-02-24T19:20:14.829Z,2.63
2023-02-24T19:22:42.660Z,2.15
2023-02-24T19:25:10.643Z,2.53
2023-02-24T19:27:38.970Z,4.45
2023-02-24T19:30:08.001Z,2.50
2023-02-24T19:32:35.867Z,2.15
2023-02-24T19:35:03.833Z,2.47
2023-02-24T19:37:32.977Z,2.55
2023-02-24T19:40:00.787Z,2.80
2023-02-24T19:42:29.157Z,2.55
2023-02-24T19:44:56.841Z,3.63
2023-02-24T19:47:24.564Z,3.15
2023-02-24T19:49:52.312Z,2.13
2023-02-24T19:52:20.016Z,2.63
2023-02-24T19:54:49.098Z,3.55
2023-02-24T19:57:16.839Z,2.92
2023-02-24T19:59:45.429Z,2.85
2023-02-24T20:02:13.172Z,2.97
2023-02-24T20:04:41.097Z,4.03
2023-02-24T20:07:08.943Z,4.53
2023-02-24T20:09:36.610Z,2.58
2023-02-24T20:12:05.869Z,3.35
2023-02-24T20:14:33.566Z,2.60
2023-02-24T20:17:01.584Z,3.40
2023-02-24T20:19:29.484Z,4.18
2023-02-24T20:21:57.220Z,2.88
2023-02-24T20:24:24.964Z,3.15
2023-02-24T20:26:52.742Z,2.50
2023-02-24T20:29:23.078Z,2.30
2023-02-24T20:31:51.188Z,2.72
2023-02-24T20:34:19.074Z,2.20
2023-02-24T20:36:46.817Z,2.50
2023-02-24T20:39:14.599Z,2.10
2023-02-24T20:41:42.312Z,2.45
2023-02-24T20:44:10.555Z,2.42
2023-02-24T20:46:39.788Z,2.20
2023-02-24T20:49:10.294Z,2.35
2023-02-24T20:51:38.704Z,2.20
2023-02-24T20:54:07.138Z,3.05
2023-02-24T20:56:37.268Z,3.65
2023-02-24T20:59:08.081Z,2.40
2023-02-24T21:01:36.558Z,2.03
2023-02-24T21:04:06.395Z,3.47
2023-02-24T21:06:34.635Z,2.83
2023-02-24T21:09:02.488Z,2.88
2023-02-24T21:11:30.817Z,2.85
2023-02-24T21:13:59.430Z,2.47
2023-02-24T21:16:27.878Z,2.83
2023-02-24T21:18:57.974Z,2.63
2023-02-24T21:21:27.509Z,3.35
2023-02-24T21:23:55.809Z,2.65
2023-02-24T21:26:26.940Z,3.80
2023-02-24T21:28:57.650Z,2.88
2023-02-24T21:31:26.258Z,3.38
2023-02-24T21:33:54.460Z,3.35
2023-02-24T21:36:25.532Z,3.60
2023-02-24T21:38:55.843Z,2.60
2023-02-24T21:41:24.386Z,3.78
2023-02-24T21:43:56.254Z,2.95
2023-02-24T21:46:28.377Z,3.13
2023-02-24T21:48:57.557Z,2.45
2023-02-24T21:51:26.388Z,3.05
2023-02-24T21:53:56.049Z,4.30
2023-02-24T21:56:25.375Z,3.72
2023-02-24T21:58:55.420Z,3.65
2023-02-24T22:01:26.937Z,2.85
2023-02-24T22:03:55.173Z,4.20
2023-02-24T22:06:23.246Z,3.58
2023-02-24T22:08:51.142Z,3.63
2023-02-24T22:11:20.456Z,3.03
2023-02-24T22:13:48.772Z,3.42
2023-02-24T22:16:19.012Z,4.75
2023-02-24T22:18:47.949Z,3.30
2023-02-24T22:21:18.100Z,2.92
2023-02-24T22:23:46.979Z,2.78
2023-02-24T22:26:16.690Z,3.72
2023-02-24T22:28:47.759Z,3.00
2023-02-24T22:31:17.938Z,3.30
2023-02-24T22:33:46.292Z,3.28
2023-02-24T22:36:16.290Z,3.90
2023-02-24T22:38:45.610Z,2.85
2023-02-24T22:41:15.951Z,2.90
2023-02-24T22:43:45.306Z,3.60
2023-02-24T22:46:15.103Z,4.20
2023-02-24T22:48:43.141Z,2.88
2023-02-24T22:51:12.483Z,3.78
2023-02-24T22:53:42.637Z,3.70
2023-02-24T22:56:12.829Z,2.97
2023-02-24T22:58:40.903Z,3.45
2023-02-24T23:01:11.954Z,2.50
2023-02-24T23:03:40.188Z,3.50
2023-02-24T23:06:10.022Z,3.30
2023-02-24T23:08:39.571Z,2.58
2023-02-24T23:11:10.860Z,3.22
2023-02-24T23:13:39.863Z,2.63
2023-02-24T23:16:09.612Z,3.58
2023-02-24T23:18:38.979Z,3.03
2023-02-24T23:21:09.142Z,2.80
2023-02-24T23:23:37.592Z,2.38
2023-02-24T23:26:06.237Z,2.38
2023-02-24T23:28:34.011Z,3.00
2023-02-24T23:31:01.892Z,3.00
2023-02-24T23:33:29.987Z,2.25
2023-02-24T23:36:04.366Z,2.75
2023-02-24T23:38:32.941Z,2.80
2023-02-24T23:41:01.142Z,2.83
2023-02-24T23:43:28.871Z,3.25
2023-02-24T23:45:56.963Z,3.05
2023-02-24T23:48:24.720Z,2.60
2023-02-24T23:50:57.044Z,2.78
2023-02-24T23:53:26.350Z,3.85
2023-02-24T23:55:54.087Z,2.83
2023-02-24T23:58:21.788Z,3.33
